Time;durP1;ratioP1;P1;durP2;ratioP2;P2;SDS_P1;SDS_P2;PMS_P1;PMS_P2;Temp;Humidity;BMP_temperature;BMP_pressure;BME280_temperature;BME280_humidity;BME280_pressure;Samples;Min_cycle;Max_cycle;Signal;HPM_P1;HPM_P2
2023/04/29 00:02:19;;;;;;;0.30;0.30;;;;;;;5.48;86.24;97174.78;5002196;28;20456;-67
2023/04/29 00:04:45;;;;;;;0.30;0.30;;;;;;;5.21;86.14;97139.59;5002534;28;20922;-68
2023/04/29 00:07:14;;;;;;;0.30;0.30;;;;;;;5.03;87.27;97129.03;5003451;28;20137;-67
2023/04/29 00:09:41;;;;;;;0.30;0.30;;;;;;;5.46;85.18;97181.75;5007113;28;20104;-67
2023/04/29 00:12:09;;;;;;;0.30;0.30;;;;;;;5.36;86.80;97184.91;5007380;28;20054;-68
2023/04/29 00:14:35;;;;;;;0.30;0.30;;;;;;;5.40;86.45;97178.41;5007455;28;20081;-67
2023/04/29 00:17:02;;;;;;;0.30;0.30;;;;;;;5.29;86.86;97184.63;5006943;28;20196;-67
2023/04/29 00:19:30;;;;;;;0.30;0.30;;;;;;;5.23;86.99;97184.00;5007341;28;20065;-68
2023/04/29 00:21:56;;;;;;;0.30;0.30;;;;;;;4.71;87.66;97127.00;5005546;28;20579;-67
2023/04/29 00:24:23;;;;;;;0.30;0.30;;;;;;;5.13;88.11;97191.81;5007047;28;20045;-69
2023/04/29 00:26:50;;;;;;;0.30;0.30;;;;;;;5.22;87.55;97203.53;5007221;28;20468;-68
2023/04/29 00:29:17;;;;;;;0.30;0.30;;;;;;;4.61;87.32;97101.53;5005903;28;20050;-68
2023/04/29 00:31:44;;;;;;;0.30;0.30;;;;;;;5.14;87.91;97180.50;5007033;28;20390;-68
2023/04/29 00:34:11;;;;;;;0.30;0.30;;;;;;;4.98;88.50;97186.91;5007352;28;20055;-68
2023/04/29 00:36:38;;;;;;;0.30;0.30;;;;;;;4.65;88.10;97134.59;5001253;28;20145;-68
2023/04/29 00:39:04;;;;;;;0.30;0.30;;;;;;;4.90;89.06;97198.72;4987424;28;20065;-67
2023/04/29 00:41:31;;;;;;;0.30;0.30;;;;;;;4.74;88.91;97179.28;4987486;28;20054;-68
2023/04/29 00:43:58;;;;;;;0.30;0.30;;;;;;;4.76;89.38;97179.72;4986936;28;20133;-69
2023/04/29 00:46:24;;;;;;;0.30;0.30;;;;;;;4.78;88.80;97176.66;4985505;28;20679;-68
2023/04/29 00:48:51;;;;;;;0.20;0.20;;;;;;;4.66;90.16;97175.41;4987304;28;20105;-68
2023/04/29 00:51:18;;;;;;;0.30;0.30;;;;;;;4.68;89.72;97167.66;4986696;28;20105;-67
2023/04/29 00:53:44;;;;;;;0.20;0.20;;;;;;;4.58;90.55;97173.50;4985576;28;20046;-67
2023/04/29 00:56:14;;;;;;;0.30;0.30;;;;;;;4.76;89.33;97162.47;4987184;28;20054;-68
2023/04/29 00:58:48;;;;;;;0.30;0.30;;;;;;;4.81;88.60;97165.81;4987223;28;20054;-68
2023/04/29 01:01:16;;;;;;;0.30;0.30;;;;;;;4.13;88.81;97073.69;5001484;28;20058;-68
2023/04/29 01:03:43;;;;;;;0.30;0.30;;;;;;;4.76;88.88;97152.28;4987036;28;20057;-68
2023/04/29 01:06:35;;;;;;;0.30;0.30;;;;;;;4.90;88.88;97146.59;4986813;28;20057;-66
2023/04/29 01:09:10;;;;;;;0.30;0.30;;;;;;;4.87;89.02;97142.53;4985380;28;20469;-66
2023/04/29 01:11:49;;;;;;;0.30;0.30;;;;;;;4.85;88.07;97160.47;4986728;28;20081;-65
2023/04/29 01:14:16;;;;;;;0.30;0.30;;;;;;;4.79;88.16;97145.34;4986556;28;20089;-66
2023/04/29 01:16:48;;;;;;;0.30;0.30;;;;;;;4.29;88.09;97076.69;4986636;28;20125;-66
2023/04/29 01:19:33;;;;;;;0.30;0.30;;;;;;;4.68;88.32;97134.75;4986795;28;20082;-66
2023/04/29 01:22:00;;;;;;;0.30;0.30;;;;;;;4.71;86.79;97127.78;4986208;28;20098;-67
2023/04/29 01:24:26;;;;;;;0.30;0.30;;;;;;;4.78;86.95;97128.06;4986506;28;20085;-68
2023/04/29 01:27:32;;;;;;;0.30;0.30;;;;;;;4.68;86.92;97134.75;4986896;28;20054;-67
2023/04/29 01:30:17;;;;;;;0.30;0.30;;;;;;;4.61;87.37;97133.66;4999092;28;20806;-68
2023/04/29 01:32:50;;;;;;;0.30;0.30;;;;;;;4.62;86.87;97136.06;5005912;28;20450;-67
2023/04/29 01:35:35;;;;;;;0.30;0.30;;;;;;;2.13;87.58;96730.41;5006520;28;20505;-67
2023/04/29 01:38:17;;;;;;;0.30;0.30;;;;;;;4.57;88.99;97125.28;5004799;28;20050;-68
2023/04/29 01:40:58;;;;;;;0.30;0.30;;;;;;;4.45;89.53;97127.91;5004189;28;20068;-67
2023/04/29 01:43:28;;;;;;;0.30;0.30;;;;;;;2.19;89.92;96751.78;5005975;28;20530;-68
2023/04/29 01:45:56;;;;;;;0.30;0.30;;;;;;;4.53;90.11;97124.34;5020595;28;20435;-67
2023/04/29 01:48:23;;;;;;;0.30;0.30;;;;;;;4.00;90.44;97063.72;4991749;28;20481;-67
2023/04/29 01:50:50;;;;;;;0.30;0.30;;;;;;;4.23;88.51;97106.22;4985671;28;20085;-67
2023/04/29 01:53:17;;;;;;;0.30;0.30;;;;;;;4.32;89.22;97131.66;4986024;28;20042;-67
2023/04/29 01:55:43;;;;;;;0.30;0.30;;;;;;;4.13;90.28;97111.25;4986121;28;20058;-67
2023/04/29 01:58:10;;;;;;;0.30;0.30;;;;;;;4.31;88.87;97127.31;4986049;28;20514;-67
2023/04/29 02:00:37;;;;;;;0.30;0.30;;;;;;;3.99;89.29;97073.09;4984439;28;20133;-67
2023/04/29 02:03:04;;;;;;;0.30;0.30;;;;;;;1.99;88.94;96751.66;4985992;28;20062;-66
2023/04/29 02:05:32;;;;;;;0.30;0.30;;;;;;;3.93;89.76;97074.41;4985493;28;20418;-67
2023/04/29 02:08:00;;;;;;;0.30;0.30;;;;;;;4.23;90.00;97144.59;4983863;28;20098;-66
2023/04/29 02:10:27;;;;;;;0.30;0.30;;;;;;;4.23;89.25;97141.88;4986104;28;20051;-66
2023/04/29 02:12:53;;;;;;;0.30;0.30;;;;;;;4.30;88.56;97138.63;4986069;28;20115;-67
2023/04/29 02:15:20;;;;;;;0.30;0.30;;;;;;;4.32;88.08;97136.34;4984366;28;20054;-67
2023/04/29 02:17:47;;;;;;;0.30;0.30;;;;;;;4.35;88.63;97144.72;4985527;28;20062;-67
2023/04/29 02:20:14;;;;;;;0.30;0.30;;;;;;;4.41;89.59;97139.88;4985439;28;20137;-67
2023/04/29 02:22:41;;;;;;;0.30;0.30;;;;;;;3.59;88.85;97000.53;4984867;28;20058;-67
2023/04/29 02:25:08;;;;;;;0.30;0.30;;;;;;;4.39;88.92;97142.13;4985185;28;20560;-68
2023/04/29 02:27:35;;;;;;;0.30;0.30;;;;;;;4.35;90.13;97136.50;4985089;28;20172;-67
2023/04/29 02:30:03;;;;;;;0.20;0.20;;;;;;;3.67;90.48;97038.03;5004612;28;20085;-67
2023/04/29 02:32:30;;;;;;;0.20;0.20;;;;;;;4.40;90.38;97133.56;5002764;28;20065;-67
2023/04/29 02:34:57;;;;;;;0.30;0.30;;;;;;;4.36;89.52;97132.59;5004418;28;20533;-68
2023/04/29 02:37:24;;;;;;;0.30;0.30;;;;;;;4.28;89.86;97129.91;5004025;28;20555;-68
2023/04/29 02:39:51;;;;;;;0.30;0.30;;;;;;;4.26;89.61;97132.97;5002693;28;20420;-66
2023/04/29 02:42:19;;;;;;;0.20;0.20;;;;;;;4.25;89.39;97125.88;5003536;28;20092;-67
2023/04/29 02:44:45;;;;;;;0.30;0.30;;;;;;;3.80;88.42;97044.44;5003638;28;20061;-66
2023/04/29 02:47:12;;;;;;;0.30;0.30;;;;;;;4.16;88.88;97100.44;5003528;28;20057;-66
2023/04/29 02:49:38;;;;;;;0.30;0.30;;;;;;;4.16;89.10;97102.34;5002589;28;20085;-67
2023/04/29 02:52:05;;;;;;;0.30;0.30;;;;;;;4.18;89.89;97120.09;5004517;28;20103;-67
2023/04/29 02:54:32;;;;;;;0.30;0.30;;;;;;;3.74;89.69;97048.50;5004493;28;20129;-67
2023/04/29 02:56:58;;;;;;;0.30;0.30;;;;;;;3.88;90.82;97071.03;5004672;28;20088;-67
2023/04/29 02:59:25;;;;;;;0.30;0.30;;;;;;;4.10;91.16;97115.44;5002994;28;20049;-68
2023/04/29 03:01:53;;;;;;;0.30;0.30;;;;;;;4.07;90.29;97102.41;5004628;28;20093;-66
2023/04/29 03:04:20;;;;;;;0.30;0.30;;;;;;;3.44;90.43;97033.91;5002806;28;20081;-66
2023/04/29 03:06:47;;;;;;;0.30;0.30;;;;;;;4.07;90.34;97113.38;5004532;28;21046;-67
2023/04/29 03:09:13;;;;;;;0.30;0.30;;;;;;;4.11;89.76;97119.78;5004223;28;20476;-66
2023/04/29 03:11:41;;;;;;;0.20;0.20;;;;;;;4.12;89.60;97115.94;5004073;28;20112;-66
2023/04/29 03:14:07;;;;;;;0.30;0.30;;;;;;;3.43;88.66;97026.81;5002616;28;20058;-66
2023/04/29 03:16:34;;;;;;;0.20;0.20;;;;;;;4.03;89.08;97128.84;5004596;28;20083;-67
2023/04/29 03:19:01;;;;;;;0.30;0.30;;;;;;;3.09;87.51;96953.00;5004023;28;20061;-67
2023/04/29 03:21:28;;;;;;;0.30;0.30;;;;;;;4.16;88.34;97133.31;5002832;28;20053;-67
2023/04/29 03:23:55;;;;;;;0.30;0.30;;;;;;;4.17;88.83;97134.13;5003880;28;20497;-67
2023/04/29 03:26:23;;;;;;;0.30;0.30;;;;;;;4.28;89.20;97136.19;5004102;28;20058;-67
2023/04/29 03:28:50;;;;;;;0.30;0.30;;;;;;;4.38;88.53;97152.28;5004228;28;20056;-66
2023/04/29 03:31:19;;;;;;;0.30;0.30;;;;;;;4.26;88.63;97118.47;5003739;28;20077;-66
2023/04/29 03:33:46;;;;;;;0.30;0.30;;;;;;;4.61;87.80;97139.13;5002546;28;20068;-66
2023/04/29 03:36:12;;;;;;;0.30;0.30;;;;;;;4.61;88.46;97134.47;5019286;28;20136;-67
2023/04/29 03:38:39;;;;;;;0.30;0.30;;;;;;;4.68;88.47;97142.97;5004075;28;20081;-66
2023/04/29 03:41:06;;;;;;;0.30;0.30;;;;;;;4.53;87.12;97105.13;5004262;28;20108;-67
2023/04/29 03:43:33;;;;;;;0.30;0.30;;;;;;;4.90;86.85;97143.84;5005654;28;20504;-67
2023/04/29 03:45:59;;;;;;;0.30;0.30;;;;;;;4.98;86.96;97143.00;5006590;28;20065;-67
2023/04/29 03:48:26;;;;;;;0.30;0.30;;;;;;;4.88;86.16;97115.91;5006359;28;20054;-67
2023/04/29 03:50:53;;;;;;;0.30;0.30;;;;;;;5.09;85.73;97133.22;5007543;28;20049;-67
2023/04/29 03:53:20;;;;;;;0.30;0.30;;;;;;;5.10;85.26;97129.34;5007742;28;20153;-67
2023/04/29 03:55:47;;;;;;;0.30;0.30;;;;;;;5.29;85.51;97165.38;5007686;28;20104;-66
2023/04/29 03:58:14;;;;;;;0.30;0.30;;;;;;;5.48;84.97;97163.81;5008017;28;20050;-67
2023/04/29 04:00:40;;;;;;;0.30;0.30;;;;;;;5.44;84.12;97129.06;5001902;28;20069;-67
2023/04/29 04:03:07;;;;;;;0.30;0.30;;;;;;;5.71;83.28;97156.00;4988161;28;20058;-67
2023/04/29 04:05:34;;;;;;;0.30;0.30;;;;;;;5.77;83.85;97157.44;4987363;28;20057;-67
2023/04/29 04:08:01;;;;;;;0.30;0.30;;;;;;;5.90;83.89;97148.09;4988348;28;20070;-68
2023/04/29 04:10:28;;;;;;;0.30;0.30;;;;;;;5.92;83.05;97129.34;4988232;28;20533;-67
2023/04/29 04:12:55;;;;;;;0.30;0.30;;;;;;;6.14;82.19;97157.28;4987538;28;20379;-68
2023/04/29 04:15:22;;;;;;;0.30;0.30;;;;;;;5.96;81.73;97124.75;4987618;28;20161;-67
2023/04/29 04:17:58;;;;;;;0.30;0.30;;;;;;;5.82;81.82;97030.81;4990467;28;20867;-68
2023/04/29 04:20:25;;;;;;;0.30;0.30;;;;;;;6.64;80.66;97128.72;4987931;28;20077;-67
2023/04/29 04:22:53;;;;;;;0.30;0.30;;;;;;;6.94;79.55;97144.66;4987760;28;20094;-66
2023/04/29 04:25:20;;;;;;;0.40;0.40;;;;;;;6.16;78.25;96997.44;4988185;28;20469;-66
2023/04/29 04:27:47;;;;;;;0.30;0.30;;;;;;;7.03;79.01;97139.03;4990052;28;20509;-67
2023/04/29 04:30:14;;;;;;;0.32;0.32;;;;;;;7.08;78.76;97125.81;5005644;28;20149;-67
2023/04/29 04:32:41;;;;;;;0.30;0.30;;;;;;;6.64;78.31;97002.91;5008162;28;20050;-67
2023/04/29 04:35:12;;;;;;;0.30;0.30;;;;;;;7.22;77.97;97082.19;5005900;28;20064;-67
2023/04/29 04:37:38;;;;;;;0.30;0.30;;;;;;;7.69;77.18;97116.31;5007664;28;20057;-67
2023/04/29 04:40:12;;;;;;;0.32;0.32;;;;;;;7.79;76.22;97122.47;5005493;28;20069;-66
2023/04/29 04:42:42;;;;;;;0.40;0.40;;;;;;;7.86;75.32;97125.41;5007047;28;20057;-69
2023/04/29 04:45:10;;;;;;;0.40;0.40;;;;;;;7.79;75.88;97115.00;5022400;28;20081;-66
2023/04/29 04:47:40;;;;;;;0.30;0.30;;;;;;;7.74;76.55;97063.63;5005659;28;20149;-69
2023/04/29 04:50:07;;;;;;;0.30;0.30;;;;;;;8.23;73.88;97124.94;5005659;28;20057;-67
2023/04/29 04:52:34;;;;;;;0.30;0.30;;;;;;;8.43;74.53;97128.59;5005506;28;20489;-68
2023/04/29 04:55:01;;;;;;;0.40;0.40;;;;;;;8.06;74.11;97033.41;5004973;28;20489;-67
2023/04/29 04:57:28;;;;;;;0.40;0.40;;;;;;;8.90;73.64;97134.94;5005725;28;20054;-67
2023/04/29 04:59:54;;;;;;;0.40;0.40;;;;;;;9.10;71.71;97131.13;5003875;28;20108;-68
2023/04/29 05:02:21;;;;;;;0.40;0.40;;;;;;;9.28;71.71;97129.56;5005052;28;20050;-69
2023/04/29 05:04:48;;;;;;;0.40;0.40;;;;;;;9.56;69.97;97123.88;4999287;28;21919;-68
2023/04/29 05:07:14;;;;;;;0.50;0.50;;;;;;;9.81;69.73;97117.72;4985620;28;20488;-68
2023/04/29 05:09:41;;;;;;;0.47;0.47;;;;;;;10.09;69.05;97123.06;4985912;28;20050;-68
2023/04/29 05:12:07;;;;;;;0.50;0.50;;;;;;;9.03;70.31;97108.84;4985436;28;20422;-65
2023/04/29 05:14:34;;;;;;;0.45;0.45;;;;;;;9.36;70.75;97117.50;5000852;28;20136;-65
2023/04/29 05:17:01;;;;;;;0.50;0.50;;;;;;;9.39;71.75;97133.38;4985435;28;20157;-64
2023/04/29 05:19:28;;;;;;;0.40;0.40;;;;;;;8.79;74.16;97137.44;4985665;28;20085;-64
2023/04/29 05:21:54;;;;;;;0.40;0.40;;;;;;;9.21;74.85;97127.44;4999903;28;20055;-65
2023/04/29 05:24:21;;;;;;;0.50;0.50;;;;;;;8.72;73.16;97108.88;4985323;28;20054;-65
2023/04/29 05:26:50;;;;;;;0.40;0.40;;;;;;;7.97;74.49;96999.63;4985338;28;20109;-65
2023/04/29 05:29:17;;;;;;;0.40;0.40;;;;;;;9.55;73.73;97127.81;4996324;28;20120;-65
2023/04/29 05:31:44;;;;;;;0.40;0.40;;;;;;;9.59;71.80;97121.19;5005098;28;20475;-65
2023/04/29 05:34:10;;;;;;;0.40;0.40;;;;;;;9.57;71.52;97068.22;5004621;28;20100;-66
2023/04/29 05:36:37;;;;;;;0.50;0.50;;;;;;;10.10;69.91;97075.63;5004433;28;20521;-64
2023/04/29 05:39:03;;;;;;;0.50;0.50;;;;;;;10.87;68.67;97115.03;4785297;28;5001805;-65
2023/04/29 05:41:30;;;;;;;0.50;0.50;;;;;;;11.37;66.86;97113.81;4995069;28;20088;-65
2023/04/29 05:43:57;;;;;;;0.50;0.50;;;;;;;11.49;65.94;97119.16;5003566;28;20229;-66
2023/04/29 05:46:23;;;;;;;0.60;0.60;;;;;;;11.73;66.34;97124.28;4956309;28;1318692;-64
2023/04/29 05:48:50;;;;;;;0.50;0.50;;;;;;;11.40;65.65;97065.91;5000402;28;20050;-58
2023/04/29 05:51:17;;;;;;;0.50;0.50;;;;;;;11.92;64.49;97124.16;4991249;28;20630;-63
2023/04/29 05:53:43;;;;;;;0.50;0.50;;;;;;;11.94;64.12;97119.03;5020157;28;20078;-64
2023/04/29 05:56:10;;;;;;;0.50;0.50;;;;;;;11.85;64.00;97115.75;5020266;28;20089;-62
2023/04/29 05:58:37;;;;;;;0.50;0.50;;;;;;;11.12;63.46;96993.44;5000175;28;20081;-63
2023/04/29 06:01:03;;;;;;;0.50;0.50;;;;;;;11.75;64.66;97099.72;4993145;28;20137;-62
2023/04/29 06:03:30;;;;;;;0.50;0.50;;;;;;;11.65;65.63;97105.97;5003358;28;20053;-61
2023/04/29 06:05:57;;;;;;;0.50;0.50;;;;;;;10.48;69.72;97108.78;5004256;28;20485;-61
2023/04/29 06:08:24;;;;;;;0.50;0.50;;;;;;;10.25;72.58;97105.19;5001431;28;20111;-57
2023/04/29 06:10:51;;;;;;;0.55;0.55;;;;;;;10.89;70.48;97073.09;4988403;28;20104;-60
2023/04/29 06:13:17;;;;;;;0.50;0.50;;;;;;;10.67;68.30;96981.31;4995258;28;20795;-62
2023/04/29 06:15:44;;;;;;;0.50;0.50;;;;;;;11.21;66.16;97007.81;4985380;28;20050;-63
2023/04/29 06:18:11;;;;;;;0.50;0.50;;;;;;;11.23;65.83;97038.75;4985847;28;20042;-63
2023/04/29 06:20:38;;;;;;;0.50;0.50;;;;;;;12.00;64.17;97087.78;4984837;28;20129;-61
2023/04/29 06:23:04;;;;;;;0.50;0.50;;;;;;;11.66;62.52;97035.41;4985484;28;20094;-62
2023/04/29 06:25:31;;;;;;;0.60;0.60;;;;;;;11.16;61.67;96930.53;4999095;28;20531;-62
2023/04/29 06:27:58;;;;;;;0.60;0.60;;;;;;;12.26;60.69;97036.91;5004963;28;20148;-61
2023/04/29 06:30:25;;;;;;;0.60;0.60;;;;;;;12.56;57.24;97076.50;5014393;28;20918;-62
2023/04/29 06:32:52;;;;;;;0.50;0.50;;;;;;;11.94;59.63;97022.66;5002472;28;20045;-60
2023/04/29 06:35:19;;;;;;;0.60;0.60;;;;;;;10.39;57.43;96900.56;4990352;28;20084;-64
2023/04/29 06:37:46;;;;;;;0.50;0.50;;;;;;;11.35;58.43;96902.66;4992447;28;20135;-61
2023/04/29 06:40:13;;;;;;;0.60;0.60;;;;;;;11.73;59.53;97004.97;4993448;28;20062;-64
2023/04/29 06:42:39;;;;;;;0.57;0.57;;;;;;;12.36;56.10;97030.63;4994672;28;20053;-60
2023/04/29 06:45:06;;;;;;;0.50;0.50;;;;;;;13.03;54.67;97068.19;4995688;28;20062;-62
2023/04/29 06:47:33;;;;;;;0.60;0.60;;;;;;;13.24;54.48;97064.78;4985550;28;20058;-62
2023/04/29 06:50:00;;;;;;;0.60;0.60;;;;;;;13.15;54.54;97056.75;4995199;28;20049;-61
2023/04/29 06:52:26;;;;;;;0.60;0.60;;;;;;;13.35;53.78;97066.44;5004430;28;20539;-63
2023/04/29 06:54:53;;;;;;;0.60;0.60;;;;;;;13.56;52.81;97055.44;5001570;28;20559;-61
2023/04/29 06:57:20;;;;;;;0.60;0.60;;;;;;;13.40;51.49;96970.69;5003766;28;20140;-67
2023/04/29 06:59:47;;;;;;;0.57;0.57;;;;;;;13.24;51.96;96945.97;5003693;28;20053;-59
2023/04/29 07:02:13;;;;;;;0.70;0.70;;;;;;;14.38;51.37;97053.81;5004171;28;20088;-61
2023/04/29 07:04:40;;;;;;;0.60;0.60;;;;;;;14.26;50.35;96973.34;5001253;28;20496;-60
2023/04/29 07:07:07;;;;;;;0.65;0.65;;;;;;;14.73;50.32;97039.94;5003874;28;20608;-61
2023/04/29 07:09:33;;;;;;;0.60;0.60;;;;;;;14.86;49.63;97043.88;5004037;28;20054;-61
2023/04/29 07:12:01;;;;;;;0.60;0.60;;;;;;;14.07;50.90;97071.97;5000364;28;20578;-61
2023/04/29 07:14:28;;;;;;;0.60;0.60;;;;;;;13.83;51.36;97035.69;4989348;28;20050;-61
2023/04/29 07:16:54;;;;;;;0.60;0.60;;;;;;;14.24;52.55;97023.09;5015523;28;20046;-60
2023/04/29 07:19:21;;;;;;;0.70;0.70;;;;;;;14.80;50.87;97034.34;5004143;28;20054;-58
2023/04/29 07:21:48;;;;;;;0.70;0.70;;;;;;;14.71;50.69;97006.84;4995926;28;20057;-61
2023/04/29 07:24:15;;;;;;;0.63;0.63;;;;;;;15.08;51.05;97034.31;5002842;28;20128;-60
2023/04/29 07:26:43;;;;;;;0.70;0.70;;;;;;;15.51;50.28;97024.72;5002140;28;20096;-60
2023/04/29 07:29:10;;;;;;;0.70;0.70;;;;;;;15.20;48.46;96997.66;5000711;28;20050;-62
2023/04/29 07:31:37;;;;;;;0.70;0.70;;;;;;;15.30;48.00;96971.69;4991371;28;20070;-61
2023/04/29 07:34:04;;;;;;;0.70;0.70;;;;;;;15.01;48.17;96950.66;5003349;28;20058;-59
2023/04/29 07:36:31;;;;;;;0.70;0.70;;;;;;;15.63;48.13;96999.16;5004366;28;20579;-61
2023/04/29 07:38:58;;;;;;;0.70;0.70;;;;;;;15.90;47.79;97013.44;5003724;28;20054;-61
2023/04/29 07:41:26;;;;;;;0.70;0.70;;;;;;;16.05;46.51;97012.16;5001893;28;20076;-59
2023/04/29 07:43:57;;;;;;;0.70;0.70;;;;;;;16.27;45.95;97008.03;4382379;28;10002000;-60
2023/04/29 07:46:23;;;;;;;0.70;0.70;;;;;;;16.13;45.75;96994.94;3071203;28;10002479;-59
2023/04/29 07:48:50;;;;;;;0.70;0.70;;;;;;;16.09;45.68;96948.66;4987165;28;20560;-59
2023/04/29 07:51:17;;;;;;;0.70;0.70;;;;;;;16.28;45.54;96985.25;4987339;28;20144;-59
2023/04/29 07:53:44;;;;;;;0.70;0.70;;;;;;;16.52;43.93;96998.31;4994832;28;20078;-57
2023/04/29 07:56:10;;;;;;;0.70;0.70;;;;;;;16.57;44.48;96986.69;4984184;28;20069;-61
2023/04/29 07:58:37;;;;;;;0.80;0.80;;;;;;;16.98;44.28;96988.75;4994912;28;20433;-59
2023/04/29 08:01:05;;;;;;;0.70;0.70;;;;;;;17.28;43.27;96986.88;4987709;28;20054;-59
2023/04/29 08:03:32;;;;;;;0.80;0.80;;;;;;;17.50;42.54;96987.47;5001372;28;20089;-56
2023/04/29 08:06:03;;;;;;;0.90;0.90;;;;;;;17.59;41.06;96987.78;4996319;28;20050;-59
2023/04/29 08:08:30;;;;;;;0.70;0.70;;;;;;;17.35;41.63;96944.81;4999990;28;20057;-58
2023/04/29 08:10:57;;;;;;;0.80;0.80;;;;;;;17.53;41.65;96969.84;4999453;28;20061;-62
2023/04/29 08:13:24;;;;;;;0.80;0.80;;;;;;;17.35;41.10;96969.22;4981520;28;20101;-56
2023/04/29 08:15:51;;;;;;;0.80;0.80;;;;;;;17.28;41.26;96970.06;4996718;28;20125;-60
2023/04/29 08:18:18;;;;;;;0.80;0.80;;;;;;;17.27;42.02;96964.88;4980172;28;20445;-61
2023/04/29 08:20:48;;;;;;;0.80;0.80;;;;;;;17.22;41.55;96909.34;4995636;28;20535;-64
2023/04/29 08:23:14;;;;;;;0.80;0.80;;;;;;;17.75;41.05;96957.94;5002166;28;20050;-63
2023/04/29 08:25:42;;;;;;;0.80;0.80;;;;;;;17.34;40.45;96894.81;4987773;28;21316;-60
2023/04/29 08:28:09;;;;;;;0.80;0.80;;;;;;;17.77;39.90;96947.13;4990216;28;20046;-60
2023/04/29 08:30:38;;;;;;;0.90;0.90;;;;;;;17.50;40.71;96942.66;5003517;28;20061;-58
2023/04/29 08:33:05;;;;;;;0.80;0.80;;;;;;;17.69;40.10;96944.81;5003053;28;20053;-58
2023/04/29 08:35:31;;;;;;;0.80;0.80;;;;;;;17.24;39.98;96902.13;4997602;28;20053;-59
2023/04/29 08:37:58;;;;;;;0.80;0.80;;;;;;;17.43;40.58;96925.91;4999282;28;20058;-58
2023/04/29 08:40:25;;;;;;;0.80;0.80;;;;;;;17.68;39.74;96909.63;5000951;28;20046;-56
2023/04/29 08:42:53;;;;;;;0.90;0.90;;;;;;;17.96;39.24;96938.06;4991581;28;20058;-59
2023/04/29 08:45:23;;;;;;;0.82;0.82;;;;;;;17.71;39.74;96903.19;4999311;28;20066;-61
2023/04/29 08:47:52;;;;;;;0.80;0.80;;;;;;;17.88;38.34;96902.13;4998922;28;20066;-58
2023/04/29 08:50:19;;;;;;;0.80;0.80;;;;;;;18.02;37.93;96929.97;4993470;28;20062;-61
2023/04/29 08:52:46;;;;;;;0.80;0.80;;;;;;;17.69;39.00;96930.81;4994008;28;20081;-60
2023/04/29 08:55:13;;;;;;;0.80;0.80;;;;;;;17.54;38.13;96860.19;5006409;28;20046;-60
2023/04/29 08:57:42;;;;;;;0.80;0.80;;;;;;;17.90;37.79;96927.75;4998375;28;20128;-61
2023/04/29 09:00:09;;;;;;;0.77;0.77;;;;;;;18.04;37.27;96921.94;5004161;28;20535;-63
2023/04/29 09:02:49;;;;;;;0.80;0.80;;;;;;;18.12;36.06;96889.78;4986743;28;20051;-62
2023/04/29 09:05:16;;;;;;;0.80;0.80;;;;;;;18.41;36.96;96910.63;4985107;28;20546;-58
2023/04/29 09:07:44;;;;;;;0.90;0.90;;;;;;;18.68;36.19;96919.78;4993579;28;20073;-62
2023/04/29 09:10:11;;;;;;;0.80;0.80;;;;;;;18.50;35.21;96927.69;4998799;28;20139;-57
2023/04/29 09:12:38;;;;;;;0.90;0.90;;;;;;;19.21;35.00;96902.78;4994621;28;20100;-62
2023/04/29 09:15:06;;;;;;;0.90;0.90;;;;;;;19.05;34.69;96857.75;4997180;28;20066;-62
2023/04/29 09:17:46;;;;;;;0.80;0.80;;;;;;;19.58;34.09;96902.47;4993033;28;20374;-58
2023/04/29 09:20:19;;;;;;;0.90;0.90;;;;;;;19.73;34.45;96902.19;5004058;28;20046;-58
2023/04/29 09:22:47;;;;;;;0.88;0.88;;;;;;;19.42;32.75;96854.66;5003544;28;20061;-58
2023/04/29 09:25:16;;;;;;;0.82;0.82;;;;;;;19.75;32.17;96896.91;4995117;28;20054;-59
2023/04/29 09:27:43;;;;;;;0.80;0.80;;;;;;;19.07;32.01;96793.53;4997753;28;20046;-60
2023/04/29 09:30:11;;;;;;;0.90;0.90;;;;;;;19.54;31.63;96825.88;5003987;28;20201;-59
2023/04/29 09:32:38;;;;;;;0.98;0.98;;;;;;;19.16;31.20;96802.19;5020354;28;20050;-62
2023/04/29 09:35:25;;;;;;;0.82;0.82;;;;;;;19.26;32.62;96806.78;5002453;28;20137;-61
2023/04/29 09:37:53;;;;;;;1.00;1.00;;;;;;;19.62;33.49;96867.91;4991629;28;20054;-59
2023/04/29 09:40:30;;;;;;;0.90;0.90;;;;;;;19.64;34.44;96876.66;5010137;28;20082;-60
2023/04/29 09:42:58;;;;;;;0.82;0.82;;;;;;;19.11;33.86;96813.91;4986595;28;20089;-60
2023/04/29 09:45:40;;;;;;;0.90;0.90;;;;;;;18.48;35.71;96857.19;4991318;28;20058;-65
2023/04/29 09:48:08;;;;;;;0.80;0.80;;;;;;;18.21;36.42;96794.72;5003396;28;20150;-59
2023/04/29 09:50:36;;;;;;;0.90;0.90;;;;;;;18.78;36.82;96837.41;5000152;28;20496;-62
2023/04/29 09:53:05;;;;;;;0.90;0.90;;;;;;;18.51;36.52;96828.28;4987408;28;20046;-57
2023/04/29 09:55:32;;;;;;;0.80;0.80;;;;;;;18.85;35.85;96831.69;5001117;28;20472;-59
2023/04/29 09:57:59;;;;;;;0.90;0.90;;;;;;;18.85;35.09;96769.94;4994819;28;20473;-61
2023/04/29 10:00:33;;;;;;;0.80;0.80;;;;;;;18.56;36.49;96835.44;4988310;28;20489;-60
2023/04/29 10:03:00;;;;;;;0.90;0.90;;;;;;;18.77;35.92;96833.03;4996255;28;20429;-61
2023/04/29 10:05:29;;;;;;;0.80;0.80;;;;;;;19.24;34.48;96820.47;4985318;28;20062;-60
2023/04/29 10:07:58;;;;;;;0.90;0.90;;;;;;;18.35;34.31;96791.69;4985676;28;20050;-59
2023/04/29 10:10:28;;;;;;;0.90;0.90;;;;;;;17.36;35.08;96595.59;4985120;28;20062;-61
2023/04/29 10:13:00;;;;;;;0.90;0.90;;;;;;;18.46;35.97;96809.16;4985001;28;20062;-60
2023/04/29 10:15:42;;;;;;;0.73;0.73;;;;;;;17.86;35.91;96767.28;4985235;28;20057;-60
2023/04/29 10:18:29;;;;;;;0.80;0.80;;;;;;;17.94;36.83;96796.78;4983394;28;20054;-61
2023/04/29 10:20:57;;;;;;;0.80;0.80;;;;;;;18.81;36.55;96774.81;4982992;28;20054;-60
2023/04/29 10:23:24;;;;;;;0.93;0.93;;;;;;;19.86;35.30;96810.31;4983980;28;20124;-60
2023/04/29 10:25:52;;;;;;;0.90;0.90;;;;;;;20.19;34.08;96811.97;4983512;28;20074;-60
2023/04/29 10:28:20;;;;;;;0.90;0.90;;;;;;;20.44;34.46;96789.63;4983615;28;20120;-61
2023/04/29 10:30:51;;;;;;;0.90;0.90;;;;;;;20.71;33.46;96809.81;4983072;28;20112;-60
2023/04/29 10:33:18;;;;;;;0.90;0.90;;;;;;;20.70;33.19;96808.25;4984959;28;20058;-60
2023/04/29 10:35:47;;;;;;;0.95;0.95;;;;;;;20.57;34.35;96796.13;4984766;28;20069;-60
2023/04/29 10:38:23;;;;;;;0.90;0.90;;;;;;;20.55;34.40;96807.06;4984189;28;20073;-60
2023/04/29 10:40:52;;;;;;;1.00;1.00;;;;;;;20.87;33.50;96798.53;4984263;28;20050;-60
2023/04/29 10:43:26;;;;;;;0.90;0.90;;;;;;;20.91;32.59;96790.78;4983918;28;20043;-60
2023/04/29 10:46:18;;;;;;;0.80;0.80;;;;;;;21.23;32.66;96787.09;4982831;28;20050;-61
2023/04/29 10:49:08;;;;;;;1.00;1.00;;;;;;;21.57;31.99;96790.91;5001794;28;20065;-61
2023/04/29 10:51:40;;;;;;;0.90;0.90;;;;;;;21.69;31.75;96728.09;5003787;28;20117;-60
2023/04/29 10:54:11;;;;;;;1.00;1.00;;;;;;;22.09;31.45;96780.03;4995042;28;20142;-60
2023/04/29 10:56:49;;;;;;;0.88;0.88;;;;;;;22.17;31.31;96781.38;4996737;28;20488;-60
2023/04/29 10:59:20;;;;;;;0.80;0.80;;;;;;;22.02;32.34;96780.25;4995697;28;20595;-57
2023/04/29 11:01:53;;;;;;;1.10;1.10;;;;;;;21.55;32.49;96779.28;4992655;28;20407;-57
2023/04/29 11:04:21;;;;;;;0.88;0.88;;;;;;;21.72;32.07;96777.94;5002642;28;20050;-57
2023/04/29 11:06:53;;;;;;;0.90;0.90;;;;;;;22.09;32.09;96774.38;5002372;28;20049;-56
2023/04/29 11:09:22;;;;;;;0.95;0.95;;;;;;;22.48;31.92;96766.66;5003798;28;20067;-58
2023/04/29 11:11:59;;;;;;;0.90;0.90;;;;;;;22.11;30.47;96771.09;5002093;28;20131;-57
2023/04/29 11:14:35;;;;;;;0.90;0.90;;;;;;;20.57;32.63;96770.78;5002314;28;20064;-56
2023/04/29 11:17:11;;;;;;;0.90;0.90;;;;;;;20.47;32.91;96771.88;5001918;28;20056;-57
2023/04/29 11:19:47;;;;;;;0.90;0.90;;;;;;;21.02;31.33;96771.59;5001735;28;20539;-59
2023/04/29 11:22:20;;;;;;;0.90;0.90;;;;;;;21.30;32.14;96767.97;5001709;28;20081;-57
2023/04/29 11:24:54;;;;;;;1.00;1.00;;;;;;;21.47;30.91;96766.63;5001489;28;20085;-57
2023/04/29 11:27:24;;;;;;;1.00;1.00;;;;;;;21.11;30.74;96692.88;5000112;28;20136;-56
2023/04/29 11:29:57;;;;;;;0.90;0.90;;;;;;;21.49;30.91;96764.16;5002556;28;20123;-56
2023/04/29 11:32:29;;;;;;;0.90;0.90;;;;;;;21.60;30.75;96758.19;5003909;28;20053;-57
2023/04/29 11:35:10;;;;;;;0.88;0.88;;;;;;;21.31;31.24;96713.16;5003887;28;20108;-57
2023/04/29 11:37:39;;;;;;;0.85;0.85;;;;;;;21.80;30.88;96758.78;5004119;28;20123;-57
2023/04/29 11:40:06;;;;;;;0.90;0.90;;;;;;;21.83;30.20;96755.09;4994700;28;20603;-57
2023/04/29 11:42:35;;;;;;;0.90;0.90;;;;;;;21.82;30.35;96747.84;4981439;28;20513;-56
2023/04/29 11:45:02;;;;;;;1.00;1.00;;;;;;;21.52;30.75;96718.16;4981879;28;20086;-57